createdAt,value
2018-02-17T00:00:31.181Z,0
2018-02-17T00:01:41.300Z,0
2018-02-17T00:02:51.489Z,0
2018-02-17T00:04:01.719Z,0
2018-02-17T00:05:11.604Z,0
2018-02-17T00:06:21.518Z,0
2018-02-17T00:07:31.421Z,0
2018-02-17T00:08:41.296Z,0
2018-02-17T00:09:51.506Z,0
2018-02-17T00:11:01.643Z,0
2018-02-17T00:12:11.413Z,0
2018-02-17T00:13:21.043Z,0
2018-02-17T00:14:30.977Z,0
2018-02-17T00:15:40.802Z,0
2018-02-17T00:16:50.926Z,0
2018-02-17T00:18:00.788Z,0
2018-02-17T00:19:10.931Z,0
2018-02-17T00:20:21.092Z,0
2018-02-17T00:21:31.139Z,0
2018-02-17T00:22:41.435Z,0
2018-02-17T00:23:51.600Z,0
2018-02-17T00:25:01.775Z,0
2018-02-17T00:26:11.923Z,0
2018-02-17T00:27:22.125Z,0
2018-02-17T00:28:32.054Z,0
2018-02-17T00:29:42.188Z,0
2018-02-17T00:30:52.179Z,0
2018-02-17T00:32:02.165Z,0
2018-02-17T00:33:12.328Z,0
2018-02-17T00:34:22.278Z,0
2018-02-17T00:35:32.398Z,0
2018-02-17T00:36:42.614Z,0
2018-02-17T00:37:52.855Z,0
2018-02-17T00:39:03.080Z,0
2018-02-17T00:40:13.238Z,0
2018-02-17T00:41:23.414Z,0
2018-02-17T00:42:33.545Z,0
2018-02-17T00:43:43.494Z,0
2018-02-17T00:44:53.686Z,0
2018-02-17T00:46:03.464Z,0
2018-02-17T00:47:13.773Z,0
2018-02-17T00:48:23.687Z,0
2018-02-17T00:49:33.553Z,0
2018-02-17T00:50:43.541Z,0
2018-02-17T00:51:53.677Z,0
2018-02-17T00:53:03.619Z,0
2018-02-17T00:54:14.776Z,0
2018-02-17T00:55:24.890Z,0
2018-02-17T00:56:34.789Z,0
2018-02-17T00:57:44.937Z,0
2018-02-17T00:58:55.071Z,0
2018-02-17T01:00:05.215Z,0
2018-02-17T01:01:15.367Z,0
2018-02-17T01:02:25.539Z,0
2018-02-17T01:03:35.682Z,0
2018-02-17T01:04:46.775Z,0
2018-02-17T01:05:56.651Z,0
2018-02-17T01:07:06.783Z,0
2018-02-17T01:08:16.911Z,0
2018-02-17T01:09:27.032Z,0
2018-02-17T01:10:37.203Z,0
2018-02-17T01:11:47.084Z,0
2018-02-17T01:12:57.232Z,0
2018-02-17T01:14:06.896Z,0
2018-02-17T01:15:16.647Z,0
2018-02-17T01:16:26.779Z,0
2018-02-17T01:17:36.903Z,0
2018-02-17T01:18:47.063Z,0
2018-02-17T01:19:56.948Z,0
2018-02-17T01:21:06.657Z,0
2018-02-17T01:22:16.782Z,0
2018-02-17T01:23:26.904Z,0
2018-02-17T01:24:36.664Z,0
2018-02-17T01:25:46.784Z,0
2018-02-17T01:26:56.648Z,0
2018-02-17T01:28:06.532Z,0
2018-02-17T01:29:16.384Z,0
2018-02-17T01:30:26.253Z,0
2018-02-17T01:31:36.132Z,0
2018-02-17T01:32:46.397Z,0
2018-02-17T01:33:56.524Z,0
2018-02-17T01:35:06.369Z,0
2018-02-17T01:36:16.605Z,0
2018-02-17T01:37:26.758Z,0
2018-02-17T01:38:36.934Z,0
2018-02-17T01:39:47.053Z,0
2018-02-17T01:40:56.821Z,0
2018-02-17T01:42:06.975Z,0
2018-02-17T01:43:17.082Z,0
2018-02-17T01:44:26.943Z,0
2018-02-17T01:45:36.805Z,0
2018-02-17T01:46:46.884Z,0
2018-02-17T01:47:57.071Z,0
2018-02-17T01:49:06.941Z,0
2018-02-17T01:50:17.055Z,0
2018-02-17T01:51:27.197Z,0
2018-02-17T01:52:37.377Z,0
2018-02-17T01:53:47.580Z,0
2018-02-17T01:54:57.207Z,0
2018-02-17T01:56:07.422Z,0
2018-02-17T01:57:17.665Z,0
2018-02-17T01:58:27.527Z,0
2018-02-17T01:59:37.704Z,0
2018-02-17T02:00:48.440Z,0
2018-02-17T02:01:58.324Z,0
2018-02-17T02:03:08.441Z,0
2018-02-17T02:04:18.577Z,0
2018-02-17T02:05:28.875Z,0
2018-02-17T02:06:39.094Z,0
2018-02-17T02:07:49.433Z,0
2018-02-17T02:08:59.187Z,0
2018-02-17T02:10:09.311Z,0
2018-02-17T02:11:19.168Z,0
2018-02-17T02:12:28.655Z,0
2018-02-17T02:13:38.513Z,0
2018-02-17T02:14:48.019Z,0
2018-02-17T02:15:57.852Z,0
2018-02-17T02:17:07.756Z,0
2018-02-17T02:18:17.905Z,0
2018-02-17T02:19:28.040Z,0
2018-02-17T02:20:38.186Z,0
2018-02-17T02:21:48.169Z,0
2018-02-17T02:22:58.291Z,0
2018-02-17T02:24:08.045Z,0
2018-02-17T02:25:17.789Z,0
2018-02-17T02:26:28.024Z,0
2018-02-17T02:27:37.569Z,0
2018-02-17T02:28:47.693Z,0
2018-02-17T02:29:57.473Z,0
2018-02-17T02:31:07.574Z,0
2018-02-17T02:32:17.719Z,0
2018-02-17T02:33:27.478Z,0
2018-02-17T02:34:37.344Z,0
2018-02-17T02:35:47.264Z,0
2018-02-17T02:36:57.201Z,0
2018-02-17T02:38:07.399Z,0
2018-02-17T02:39:17.510Z,0
2018-02-17T02:40:27.408Z,0
2018-02-17T02:41:37.159Z,0
2018-02-17T02:42:47.306Z,0
2018-02-17T02:43:57.462Z,0
2018-02-17T02:45:07.643Z,0
2018-02-17T02:46:17.241Z,0
2018-02-17T02:47:27.135Z,0
2018-02-17T02:48:37.341Z,0
2018-02-17T02:49:47.252Z,0
2018-02-17T02:50:57.377Z,0
2018-02-17T02:52:07.524Z,0
2018-02-17T02:53:17.418Z,0
2018-02-17T02:54:27.545Z,0
2018-02-17T02:55:37.669Z,0
2018-02-17T02:56:47.809Z,0
2018-02-17T02:57:57.755Z,0
2018-02-17T02:59:07.530Z,0
2018-02-17T03:00:17.635Z,0
2018-02-17T03:01:27.497Z,0
2018-02-17T03:02:37.028Z,0
2018-02-17T03:03:47.211Z,0
2018-02-17T03:04:57.590Z,0
2018-02-17T03:06:07.797Z,0
2018-02-17T03:07:17.925Z,0
2018-02-17T03:08:28.104Z,0
2018-02-17T03:09:37.923Z,0
2018-02-17T03:10:48.076Z,0
2018-02-17T03:11:58.240Z,0
2018-02-17T03:13:08.388Z,0
2018-02-17T03:14:18.543Z,0
2018-02-17T03:15:28.453Z,0
2018-02-17T03:16:38.632Z,0
2018-02-17T03:17:48.886Z,0
2018-02-17T03:18:58.869Z,0
2018-02-17T03:20:09.602Z,0
2018-02-17T03:21:19.736Z,0
2018-02-17T03:22:29.733Z,0
2018-02-17T03:23:39.680Z,0
2018-02-17T03:24:49.442Z,0
2018-02-17T03:25:59.191Z,0
2018-02-17T03:27:09.310Z,0
2018-02-17T03:28:19.354Z,0
2018-02-17T03:29:29.231Z,0
2018-02-17T03:30:39.379Z,0
2018-02-17T03:31:49.248Z,0
2018-02-17T03:32:59.358Z,0
2018-02-17T03:34:08.696Z,0
2018-02-17T03:35:18.571Z,0
2018-02-17T03:36:28.680Z,0
2018-02-17T03:37:38.785Z,0
2018-02-17T03:38:48.985Z,0
2018-02-17T03:39:59.143Z,0
2018-02-17T03:41:09.283Z,0
2018-02-17T03:42:19.397Z,0
2018-02-17T03:43:29.530Z,0
2018-02-17T03:44:39.212Z,0
2018-02-17T03:45:49.096Z,0
2018-02-17T03:46:59.217Z,0
2018-02-17T03:48:09.120Z,0
2018-02-17T03:49:19.304Z,0
2018-02-17T03:50:29.434Z,0
2018-02-17T03:51:39.555Z,0
2018-02-17T03:52:49.059Z,0
2018-02-17T03:53:58.944Z,0
2018-02-17T03:55:08.930Z,0
2018-02-17T03:56:19.043Z,0
2018-02-17T03:57:28.642Z,0
2018-02-17T03:58:38.807Z,0
2018-02-17T03:59:48.888Z,0
2018-02-17T04:00:58.741Z,0
2018-02-17T04:02:08.252Z,0
2018-02-17T04:03:18.367Z,0
2018-02-17T04:04:28.507Z,0
2018-02-17T04:05:38.403Z,0
2018-02-17T04:06:48.044Z,0
2018-02-17T04:07:57.887Z,0
2018-02-17T04:09:08.005Z,0
2018-02-17T04:10:17.880Z,0
2018-02-17T04:11:28.016Z,0
2018-02-17T04:12:38.147Z,0
2018-02-17T04:13:48.267Z,0
2018-02-17T04:14:58.395Z,0
2018-02-17T04:16:08.516Z,0
2018-02-17T04:17:18.435Z,0
2018-02-17T04:18:28.690Z,0
2018-02-17T04:19:38.870Z,0
2018-02-17T04:20:49.255Z,0
2018-02-17T04:21:59.035Z,0
2018-02-17T04:23:09.158Z,0
2018-02-17T04:24:19.330Z,0
2018-02-17T04:25:29.466Z,0
2018-02-17T04:26:39.567Z,0
2018-02-17T04:27:49.688Z,0
2018-02-17T04:28:59.641Z,0
2018-02-17T04:30:09.246Z,0
2018-02-17T04:31:19.008Z,0
2018-02-17T04:32:29.118Z,0
2018-02-17T04:33:38.730Z,0
2018-02-17T04:34:48.645Z,0
2018-02-17T04:35:58.552Z,0
2018-02-17T04:37:08.774Z,0
2018-02-17T04:38:18.663Z,0
2018-02-17T04:39:28.584Z,0
2018-02-17T04:40:38.715Z,0
2018-02-17T04:41:48.468Z,0
2018-02-17T04:42:58.620Z,0
2018-02-17T04:44:08.784Z,0
2018-02-17T04:45:18.481Z,0
2018-02-17T04:46:28.381Z,0
2018-02-17T04:47:38.252Z,0
2018-02-17T04:48:48.366Z,0
2018-02-17T04:49:58.491Z,0
2018-02-17T04:51:08.612Z,0
2018-02-17T04:52:18.365Z,0
2018-02-17T04:53:28.245Z,0
2018-02-17T04:54:38.393Z,0
2018-02-17T04:55:48.191Z,0
2018-02-17T04:56:57.970Z,0
2018-02-17T04:58:08.106Z,0
2018-02-17T04:59:18.235Z,0
2018-02-17T05:00:28.090Z,0
2018-02-17T05:01:38.074Z,0
2018-02-17T05:02:48.249Z,0
2018-02-17T05:03:58.023Z,0
2018-02-17T05:05:08.211Z,0
2018-02-17T05:06:18.240Z,0
2018-02-17T05:07:28.107Z,0
2018-02-17T05:08:38.214Z,0
2018-02-17T05:09:48.337Z,0
2018-02-17T05:10:58.445Z,0
2018-02-17T05:12:08.318Z,0
2018-02-17T05:13:18.473Z,0
2018-02-17T05:14:28.592Z,0
2018-02-17T05:15:38.548Z,0
2018-02-17T05:16:48.652Z,0
2018-02-17T05:17:58.789Z,0
2018-02-17T05:19:08.960Z,0
2018-02-17T05:20:18.459Z,0
2018-02-17T05:21:28.392Z,0
2018-02-17T05:22:38.615Z,0
2018-02-17T05:23:48.505Z,0
2018-02-17T05:24:58.767Z,0
2018-02-17T05:26:08.643Z,0
2018-02-17T05:27:18.754Z,0
2018-02-17T05:28:28.869Z,0
2018-02-17T05:29:38.732Z,0
2018-02-17T05:30:48.902Z,0
2018-02-17T05:31:59.348Z,0
2018-02-17T05:33:09.453Z,0
2018-02-17T05:34:19.640Z,0
2018-02-17T05:35:29.817Z,0
2018-02-17T05:36:39.313Z,0
2018-02-17T05:37:49.440Z,0
2018-02-17T05:38:59.295Z,0
2018-02-17T05:40:09.258Z,0
2018-02-17T05:41:19.553Z,0
2018-02-17T05:42:29.671Z,0
2018-02-17T05:43:39.856Z,0
2018-02-17T05:44:49.987Z,0
2018-02-17T05:45:59.777Z,0
2018-02-17T05:47:09.999Z,0
2018-02-17T05:48:20.136Z,0
2018-02-17T05:49:30.014Z,0
2018-02-17T05:50:39.925Z,0
2018-02-17T05:51:49.830Z,0
2018-02-17T05:53:00.175Z,0
2018-02-17T05:54:10.051Z,0
2018-02-17T05:55:19.923Z,0
2018-02-17T05:56:29.852Z,0
2018-02-17T05:57:39.465Z,0
2018-02-17T05:58:49.064Z,0
2018-02-17T05:59:59.201Z,0
2018-02-17T06:01:09.308Z,0
2018-02-17T06:02:19.447Z,0
2018-02-17T06:03:29.092Z,0
2018-02-17T06:04:39.001Z,0
2018-02-17T06:05:49.139Z,0
2018-02-17T06:06:59.259Z,0
2018-02-17T06:08:09.211Z,0
2018-02-17T06:09:19.064Z,0
2018-02-17T06:10:28.695Z,0
2018-02-17T06:11:38.943Z,0
2018-02-17T06:12:49.074Z,0
2018-02-17T06:13:59.231Z,0
2018-02-17T06:15:08.867Z,0
2018-02-17T06:16:18.865Z,5
2018-02-17T06:17:28.496Z,5
2018-02-17T06:18:38.634Z,5
2018-02-17T06:19:48.644Z,5
2018-02-17T06:20:58.755Z,5
2018-02-17T06:22:08.665Z,5
2018-02-17T06:23:18.506Z,5
2018-02-17T06:24:28.468Z,5
2018-02-17T06:25:38.353Z,5
2018-02-17T06:26:48.477Z,10
2018-02-17T06:27:58.381Z,10
2018-02-17T06:29:08.611Z,10
2018-02-17T06:30:18.817Z,10
2018-02-17T06:31:29.028Z,15
2018-02-17T06:32:38.663Z,15
2018-02-17T06:33:48.281Z,15
2018-02-17T06:34:58.146Z,20
2018-02-17T06:36:08.018Z,20
2018-02-17T06:37:17.635Z,25
2018-02-17T06:38:27.747Z,25
2018-02-17T06:39:37.898Z,30
2018-02-17T06:40:48.986Z,30
2018-02-17T06:41:59.131Z,30
2018-02-17T06:43:08.734Z,35
2018-02-17T06:44:18.865Z,35
2018-02-17T06:45:28.980Z,35
2018-02-17T06:46:38.852Z,40
2018-02-17T06:47:48.794Z,40
2018-02-17T06:48:58.842Z,40
2018-02-17T06:50:08.504Z,40
2018-02-17T06:51:18.398Z,40
2018-02-17T06:52:28.523Z,45
2018-02-17T06:53:38.644Z,45
2018-02-17T06:54:48.846Z,50
2018-02-17T06:55:58.834Z,50
2018-02-17T06:57:09.006Z,55
2018-02-17T06:58:19.210Z,55
2018-02-17T06:59:29.345Z,60
2018-02-17T07:00:39.470Z,60
2018-02-17T07:01:49.336Z,65
2018-02-17T07:02:59.234Z,70
2018-02-17T07:04:09.104Z,70
2018-02-17T07:05:18.979Z,75
2018-02-17T07:06:28.897Z,75
2018-02-17T07:07:38.773Z,80
2018-02-17T07:08:48.933Z,80
2018-02-17T07:09:58.780Z,80
2018-02-17T07:11:08.897Z,80
2018-02-17T07:12:18.780Z,85
2018-02-17T07:13:28.889Z,90
2018-02-17T07:14:39.081Z,90
2018-02-17T07:15:48.969Z,95
2018-02-17T07:16:58.849Z,95
2018-02-17T07:18:08.978Z,100
2018-02-17T07:19:19.109Z,105
2018-02-17T07:20:29.352Z,110
2018-02-17T07:21:39.557Z,110
2018-02-17T07:22:49.704Z,115
2018-02-17T07:23:59.931Z,120
2018-02-17T07:25:10.178Z,115
2018-02-17T07:26:20.323Z,120
2018-02-17T07:27:30.517Z,120
2018-02-17T07:28:40.710Z,125
2018-02-17T07:29:50.950Z,130
2018-02-17T07:31:01.263Z,140
2018-02-17T07:32:10.796Z,145
2018-02-17T07:33:20.934Z,150
2018-02-17T07:34:31.063Z,150
2018-02-17T07:35:41.208Z,150
2018-02-17T07:36:51.467Z,155
2018-02-17T07:38:01.644Z,155
2018-02-17T07:39:11.549Z,165
2018-02-17T07:40:21.174Z,170
2018-02-17T07:41:30.673Z,175
2018-02-17T07:42:40.516Z,180
2018-02-17T07:43:50.782Z,175
2018-02-17T07:45:00.958Z,190
2018-02-17T07:46:10.765Z,205
2018-02-17T07:47:20.631Z,215
2018-02-17T07:48:30.523Z,215
2018-02-17T07:49:40.625Z,225
2018-02-17T07:50:50.759Z,240
2018-02-17T07:52:00.615Z,245
2018-02-17T07:53:10.760Z,245
2018-02-17T07:54:20.912Z,240
2018-02-17T07:55:31.048Z,250
2018-02-17T07:56:40.996Z,240
2018-02-17T07:57:50.872Z,240
2018-02-17T07:59:01.125Z,245
2018-02-17T08:00:10.748Z,240
2018-02-17T08:01:20.866Z,255
2018-02-17T08:02:30.995Z,255
2018-02-17T08:03:40.930Z,250
2018-02-17T08:04:51.052Z,250
2018-02-17T08:06:01.026Z,245
2018-02-17T08:07:11.229Z,240
2018-02-17T08:08:21.243Z,235
2018-02-17T08:09:31.571Z,240
2018-02-17T08:10:41.454Z,245
2018-02-17T08:11:51.602Z,250
2018-02-17T08:13:01.752Z,265
2018-02-17T08:14:11.889Z,275
2018-02-17T08:15:22.041Z,280
2018-02-17T08:16:31.642Z,315
2018-02-17T08:17:41.872Z,355
2018-02-17T08:18:52.103Z,360
2018-02-17T08:20:01.875Z,370
2018-02-17T08:21:12.150Z,360
2018-02-17T08:22:22.081Z,305
2018-02-17T08:23:32.417Z,310
2018-02-17T08:24:42.244Z,315
2018-02-17T08:25:52.144Z,315
2018-02-17T08:27:02.058Z,370
2018-02-17T08:28:12.232Z,400
2018-02-17T08:29:22.389Z,435
2018-02-17T08:30:32.374Z,430
2018-02-17T08:31:42.528Z,430
2018-02-17T08:32:52.730Z,430
2018-02-17T08:34:02.858Z,435
2018-02-17T08:35:13.133Z,450
2018-02-17T08:36:23.072Z,420
2018-02-17T08:37:33.189Z,465
2018-02-17T08:38:43.429Z,410
2018-02-17T08:39:53.728Z,415
2018-02-17T08:41:03.898Z,435
2018-02-17T08:42:14.066Z,445
2018-02-17T08:43:24.249Z,465
2018-02-17T08:44:34.543Z,400
2018-02-17T08:45:44.489Z,465
2018-02-17T08:46:54.617Z,445
2018-02-17T08:48:04.235Z,435
2018-02-17T08:49:14.394Z,450
2018-02-17T08:50:24.294Z,445
2018-02-17T08:51:34.443Z,495
2018-02-17T08:52:44.218Z,505
2018-02-17T08:53:54.206Z,490
2018-02-17T08:55:04.125Z,470
2018-02-17T08:56:14.274Z,440
2018-02-17T08:57:24.482Z,420
2018-02-17T08:58:34.695Z,400
2018-02-17T08:59:44.506Z,405
2018-02-17T09:00:54.668Z,410
2018-02-17T09:02:04.825Z,420
2018-02-17T09:03:14.635Z,460
2018-02-17T09:04:24.599Z,455
2018-02-17T09:05:34.129Z,430
2018-02-17T09:06:44.000Z,405
2018-02-17T09:07:53.763Z,405
2018-02-17T09:09:03.906Z,410
2018-02-17T09:10:14.054Z,415
2018-02-17T09:11:24.022Z,435
2018-02-17T09:12:34.165Z,510
2018-02-17T09:13:44.058Z,445
2018-02-17T09:14:54.418Z,445
2018-02-17T09:16:04.695Z,430
2018-02-17T09:17:14.324Z,445
2018-02-17T09:18:23.947Z,480
2018-02-17T09:19:33.862Z,490
2018-02-17T09:20:43.626Z,490
2018-02-17T09:21:53.593Z,470
2018-02-17T09:23:03.727Z,480
2018-02-17T09:24:13.899Z,475
2018-02-17T09:25:24.085Z,465
2018-02-17T09:26:34.270Z,475
2018-02-17T09:27:43.999Z,480
2018-02-17T09:28:54.164Z,500
2018-02-17T09:30:04.073Z,510
2018-02-17T09:31:14.115Z,510
2018-02-17T09:32:23.918Z,530
2018-02-17T09:33:34.161Z,530
2018-02-17T09:34:43.776Z,490
2018-02-17T09:35:54.032Z,505
2018-02-17T09:37:03.954Z,510
2018-02-17T09:38:14.137Z,505
2018-02-17T09:39:23.666Z,500
2018-02-17T09:40:33.846Z,490
2018-02-17T09:41:44.135Z,470
2018-02-17T09:42:54.291Z,480
2018-02-17T09:44:04.168Z,495
2018-02-17T09:45:14.329Z,500
2018-02-17T09:46:24.520Z,520
2018-02-17T09:47:34.745Z,540
2018-02-17T09:48:44.925Z,600
2018-02-17T09:49:55.136Z,645
2018-02-17T09:51:05.303Z,580
2018-02-17T09:52:15.123Z,560
2018-02-17T09:53:25.391Z,590
2018-02-17T09:54:35.555Z,500
2018-02-17T09:55:45.692Z,525
2018-02-17T09:56:55.316Z,470
2018-02-17T09:58:05.509Z,470
2018-02-17T09:59:15.673Z,490
2018-02-17T10:00:25.826Z,470
2018-02-17T10:01:35.342Z,505
2018-02-17T10:02:45.486Z,470
2018-02-17T10:03:55.443Z,475
2018-02-17T10:05:05.331Z,485
2018-02-17T10:06:16.492Z,455
2018-02-17T10:07:26.589Z,460
2018-02-17T10:08:36.580Z,450
2018-02-17T10:09:46.755Z,440
2018-02-17T10:10:56.916Z,435
2018-02-17T10:12:07.072Z,420
2018-02-17T10:13:17.442Z,405
2018-02-17T10:14:27.583Z,400
2018-02-17T10:15:37.373Z,380
2018-02-17T10:16:47.090Z,375
2018-02-17T10:17:57.072Z,385
2018-02-17T10:19:07.042Z,400
2018-02-17T10:20:16.833Z,415
2018-02-17T10:21:26.742Z,430
2018-02-17T10:22:37.023Z,425
2018-02-17T10:23:47.445Z,440
2018-02-17T10:24:57.651Z,450
2018-02-17T10:26:07.295Z,440
2018-02-17T10:27:17.184Z,445
2018-02-17T10:28:27.345Z,445
2018-02-17T10:29:37.544Z,460
2018-02-17T10:30:47.443Z,485
2018-02-17T10:31:57.601Z,480
2018-02-17T10:33:07.603Z,490
2018-02-17T10:34:17.529Z,495
2018-02-17T10:35:27.470Z,510
2018-02-17T10:36:37.330Z,520
2018-02-17T10:37:47.283Z,540
2018-02-17T10:38:57.164Z,550
2018-02-17T10:40:07.067Z,575
2018-02-17T10:41:17.291Z,560
2018-02-17T10:42:27.448Z,540
2018-02-17T10:43:37.354Z,530
2018-02-17T10:44:47.524Z,525
2018-02-17T10:45:57.420Z,535
2018-02-17T10:47:07.559Z,565
2018-02-17T10:48:17.957Z,545
2018-02-17T10:49:28.328Z,535
2018-02-17T10:50:38.711Z,520
2018-02-17T10:51:48.894Z,505
2018-02-17T10:52:59.047Z,510
2018-02-17T10:54:09.193Z,475
2018-02-17T10:55:19.327Z,475
2018-02-17T10:56:29.562Z,465
2018-02-17T10:57:39.744Z,455
2018-02-17T10:58:51.000Z,475
2018-02-17T11:00:01.175Z,475
2018-02-17T11:01:11.203Z,495
2018-02-17T11:02:21.149Z,495
2018-02-17T11:03:31.360Z,495
2018-02-17T11:04:41.298Z,495
2018-02-17T11:05:50.852Z,495
2018-02-17T11:07:01.328Z,490
2018-02-17T11:08:11.242Z,470
2018-02-17T11:09:20.930Z,480
2018-02-17T11:10:31.245Z,475
2018-02-17T11:11:41.251Z,490
2018-02-17T11:12:51.412Z,490
2018-02-17T11:14:01.382Z,490
2018-02-17T11:15:11.592Z,485
2018-02-17T11:16:21.751Z,495
2018-02-17T11:17:31.639Z,510
2018-02-17T11:18:41.800Z,505
2018-02-17T11:19:52.020Z,515
2018-02-17T11:21:02.199Z,530
2018-02-17T11:22:12.145Z,550
2018-02-17T11:23:22.302Z,580
2018-02-17T11:24:32.087Z,600
2018-02-17T11:25:42.020Z,610
2018-02-17T11:26:51.948Z,605
2018-02-17T11:28:01.654Z,605
2018-02-17T11:29:11.906Z,580
2018-02-17T11:30:21.813Z,585
2018-02-17T11:31:31.698Z,615
2018-02-17T11:32:41.896Z,655
2018-02-17T11:33:52.043Z,690
2018-02-17T11:35:02.012Z,755
2018-02-17T11:36:11.962Z,810
2018-02-17T11:37:22.116Z,835
2018-02-17T11:38:32.374Z,880
2018-02-17T11:39:42.169Z,965
2018-02-17T11:40:52.474Z,980
2018-02-17T11:42:02.638Z,1140
2018-02-17T11:43:12.804Z,1015
2018-02-17T11:44:22.691Z,950
2018-02-17T11:45:33.043Z,910
2018-02-17T11:46:42.950Z,860
2018-02-17T11:47:52.866Z,855
2018-02-17T11:49:03.093Z,870
2018-02-17T11:50:13.360Z,870
2018-02-17T11:51:23.511Z,870
2018-02-17T11:52:33.637Z,875
2018-02-17T11:53:43.863Z,960
2018-02-17T11:54:54.020Z,900
2018-02-17T11:56:03.945Z,780
2018-02-17T11:57:14.105Z,875
2018-02-17T11:58:23.891Z,960
2018-02-17T11:59:34.145Z,915
2018-02-17T12:00:44.347Z,805
2018-02-17T12:01:54.547Z,770
2018-02-17T12:03:04.730Z,810
2018-02-17T12:04:14.967Z,740
2018-02-17T12:05:25.166Z,750
2018-02-17T12:06:35.344Z,755
2018-02-17T12:07:45.480Z,705
2018-02-17T12:08:55.677Z,700
2018-02-17T12:10:06.009Z,655
2018-02-17T12:11:16.186Z,625
2018-02-17T12:12:25.738Z,605
2018-02-17T12:13:36.034Z,560
2018-02-17T12:14:46.393Z,530
2018-02-17T12:15:56.070Z,525
2018-02-17T12:17:05.765Z,510
2018-02-17T12:18:15.936Z,510
2018-02-17T12:19:25.578Z,525
2018-02-17T12:21:07.635Z,530
2018-02-17T12:22:17.861Z,535
2018-02-17T12:23:28.058Z,550
2018-02-17T12:24:38.214Z,560
2018-02-17T12:25:48.134Z,525
2018-02-17T12:26:58.293Z,610
2018-02-17T12:28:08.203Z,530
2018-02-17T12:29:19.383Z,505
2018-02-17T12:30:29.551Z,485
2018-02-17T12:31:39.693Z,475
2018-02-17T12:32:49.620Z,460
2018-02-17T12:33:59.448Z,435
2018-02-17T12:35:09.599Z,430
2018-02-17T12:36:19.872Z,460
2018-02-17T12:37:29.761Z,470
2018-02-17T12:38:40.047Z,465
2018-02-17T12:39:49.997Z,450
2018-02-17T12:40:59.835Z,460
2018-02-17T12:42:10.983Z,445
2018-02-17T12:43:21.161Z,450
2018-02-17T12:44:30.931Z,445
2018-02-17T12:45:40.560Z,440
2018-02-17T12:46:50.701Z,430
2018-02-17T12:48:00.883Z,410
2018-02-17T12:49:11.048Z,415
2018-02-17T12:50:20.939Z,410
2018-02-17T12:51:30.817Z,415
2018-02-17T12:52:41.212Z,425
2018-02-17T12:53:51.364Z,425
2018-02-17T12:55:01.258Z,435
2018-02-17T12:56:11.063Z,415
2018-02-17T12:57:21.203Z,370
2018-02-17T12:58:31.350Z,350
2018-02-17T12:59:41.552Z,355
2018-02-17T13:00:51.490Z,365
2018-02-17T13:02:01.382Z,355
2018-02-17T13:03:10.905Z,350
2018-02-17T13:04:21.078Z,345
2018-02-17T13:05:31.235Z,340
2018-02-17T13:06:41.151Z,330
2018-02-17T13:07:51.146Z,325
2018-02-17T13:09:01.297Z,325
2018-02-17T13:10:11.187Z,325
2018-02-17T13:11:21.357Z,330
2018-02-17T13:12:31.367Z,335
2018-02-17T13:13:41.521Z,330
2018-02-17T13:14:51.686Z,320
2018-02-17T13:16:01.844Z,305
2018-02-17T13:17:11.985Z,305
2018-02-17T13:18:22.170Z,320
2018-02-17T13:19:32.332Z,305
2018-02-17T13:20:42.525Z,315
2018-02-17T13:21:52.756Z,335
2018-02-17T13:23:02.685Z,305
2018-02-17T13:24:12.219Z,285
2018-02-17T13:25:22.157Z,285
2018-02-17T13:26:32.241Z,285
2018-02-17T13:27:42.187Z,280
2018-02-17T13:28:51.880Z,280
2018-02-17T13:30:02.039Z,270
2018-02-17T13:31:12.259Z,255
2018-02-17T13:32:22.059Z,255
2018-02-17T13:33:32.216Z,250
2018-02-17T13:34:41.755Z,250
2018-02-17T13:35:51.642Z,245
2018-02-17T13:37:01.613Z,240
2018-02-17T13:38:11.669Z,245
2018-02-17T13:39:21.848Z,245
2018-02-17T13:40:31.867Z,240
2018-02-17T13:41:41.847Z,240
2018-02-17T13:42:51.763Z,235
2018-02-17T13:44:01.974Z,230
2018-02-17T13:45:11.919Z,220
2018-02-17T13:46:22.106Z,215
2018-02-17T13:47:32.043Z,210
2018-02-17T13:48:41.937Z,215
2018-02-17T13:49:51.733Z,210
2018-02-17T13:51:01.921Z,205
2018-02-17T13:52:12.255Z,210
2018-02-17T13:53:22.480Z,210
2018-02-17T13:54:33.621Z,210
2018-02-17T13:55:43.831Z,220
2018-02-17T13:56:54.109Z,225
2018-02-17T13:58:04.912Z,225
2018-02-17T13:59:14.793Z,220
2018-02-17T14:00:24.982Z,215
2018-02-17T14:01:34.614Z,205
2018-02-17T14:02:44.525Z,200
2018-02-17T14:03:54.492Z,200
2018-02-17T14:05:04.728Z,200
2018-02-17T14:06:14.888Z,200
2018-02-17T14:07:24.792Z,195
2018-02-17T14:08:34.962Z,195
2018-02-17T14:09:45.114Z,190
2018-02-17T14:10:55.393Z,190
2018-02-17T14:12:05.560Z,200
2018-02-17T14:13:15.716Z,180
2018-02-17T14:14:26.608Z,175
2018-02-17T14:15:37.010Z,175
2018-02-17T14:16:46.917Z,180
2018-02-17T14:17:57.343Z,185
2018-02-17T14:19:07.468Z,185
2018-02-17T14:20:18.534Z,180
2018-02-17T14:21:28.789Z,170
2018-02-17T14:22:38.989Z,165
2018-02-17T14:23:49.140Z,150
2018-02-17T14:24:59.320Z,145
2018-02-17T14:26:09.528Z,130
2018-02-17T14:27:19.482Z,125
2018-02-17T14:28:29.186Z,115
2018-02-17T14:29:39.333Z,110
2018-02-17T14:30:49.524Z,105
2018-02-17T14:31:59.310Z,105
2018-02-17T14:33:09.118Z,105
2018-02-17T14:34:19.275Z,105
2018-02-17T14:35:29.071Z,105
2018-02-17T14:36:39.245Z,100
2018-02-17T14:37:49.169Z,100
2018-02-17T14:38:59.373Z,100
2018-02-17T14:40:09.421Z,100
2018-02-17T14:41:19.575Z,100
2018-02-17T14:42:29.737Z,100
2018-02-17T14:43:39.912Z,95
2018-02-17T14:44:50.278Z,95
2018-02-17T14:46:00.511Z,95
2018-02-17T14:47:10.679Z,95
2018-02-17T14:48:20.824Z,90
2018-02-17T14:49:31.015Z,85
2018-02-17T14:50:41.171Z,85
2018-02-17T14:51:51.377Z,75
2018-02-17T14:53:01.589Z,75
2018-02-17T14:54:11.740Z,75
2018-02-17T14:55:21.873Z,75
2018-02-17T14:56:32.063Z,75
2018-02-17T14:57:42.229Z,75
2018-02-17T14:58:51.794Z,75
2018-02-17T15:00:01.592Z,75
2018-02-17T15:01:11.692Z,80
2018-02-17T15:02:21.921Z,85
2018-02-17T15:03:32.185Z,90
2018-02-17T15:04:42.354Z,90
2018-02-17T15:05:52.490Z,90
2018-02-17T15:07:02.642Z,90
2018-02-17T15:08:12.794Z,90
2018-02-17T15:09:23.007Z,90
2018-02-17T15:10:32.968Z,90
2018-02-17T15:11:42.975Z,90
2018-02-17T15:12:53.196Z,90
2018-02-17T15:14:03.370Z,95
2018-02-17T15:15:13.164Z,90
2018-02-17T15:16:22.837Z,90
2018-02-17T15:17:32.485Z,90
2018-02-17T15:18:42.908Z,95
2018-02-17T15:19:52.806Z,85
2018-02-17T15:21:03.217Z,85
2018-02-17T15:22:13.408Z,80
2018-02-17T15:23:23.828Z,75
2018-02-17T15:24:33.984Z,75
2018-02-17T15:25:44.137Z,70
2018-02-17T15:26:54.085Z,65
2018-02-17T15:28:04.238Z,60
2018-02-17T15:29:14.731Z,55
2018-02-17T15:30:25.152Z,50
2018-02-17T15:31:35.343Z,55
2018-02-17T15:32:45.162Z,55
2018-02-17T15:33:54.786Z,55
2018-02-17T15:35:04.913Z,55
2018-02-17T15:36:15.130Z,55
2018-02-17T15:37:24.942Z,55
2018-02-17T15:38:34.870Z,55
2018-02-17T15:39:45.034Z,55
2018-02-17T15:40:55.812Z,55
2018-02-17T15:42:06.054Z,50
2018-02-17T15:43:16.199Z,50
2018-02-17T15:44:26.087Z,50
2018-02-17T15:45:36.238Z,50
2018-02-17T15:46:46.376Z,45
2018-02-17T15:47:56.584Z,45
2018-02-17T15:49:06.727Z,45
2018-02-17T15:50:17.334Z,40
2018-02-17T15:51:27.564Z,40
2018-02-17T15:52:37.740Z,35
2018-02-17T15:53:47.639Z,35
2018-02-17T15:54:57.579Z,35
2018-02-17T15:56:07.492Z,35
2018-02-17T15:57:17.401Z,30
2018-02-17T15:58:27.552Z,30
2018-02-17T15:59:37.523Z,25
2018-02-17T16:00:47.777Z,25
2018-02-17T16:01:58.028Z,20
2018-02-17T16:03:07.993Z,20
2018-02-17T16:04:18.160Z,20
2018-02-17T16:05:28.052Z,20
2018-02-17T16:06:38.215Z,15
2018-02-17T16:07:48.144Z,15
2018-02-17T16:08:59.453Z,15
2018-02-17T16:10:09.624Z,15
2018-02-17T16:11:19.506Z,15
2018-02-17T16:12:29.709Z,10
2018-02-17T16:13:39.905Z,10
2018-02-17T16:14:50.100Z,10
2018-02-17T16:16:00.509Z,10
2018-02-17T16:17:10.666Z,10
2018-02-17T16:18:20.594Z,10
2018-02-17T16:19:30.846Z,5
2018-02-17T16:20:40.997Z,5
2018-02-17T16:21:51.219Z,5
2018-02-17T16:23:01.225Z,5
2018-02-17T16:24:11.476Z,5
2018-02-17T16:25:21.659Z,5
2018-02-17T16:26:31.829Z,5
2018-02-17T16:27:41.661Z,5
2018-02-17T16:28:51.868Z,0
2018-02-17T16:30:01.787Z,0
2018-02-17T16:31:12.120Z,0
2018-02-17T16:32:22.309Z,0
2018-02-17T16:33:32.519Z,0
2018-02-17T16:34:42.714Z,0
2018-02-17T16:35:52.667Z,0
2018-02-17T16:37:02.579Z,0
2018-02-17T16:38:13.232Z,0